Terminal Aerodrome Forecast
Issued by NWS

Home | Current Version | Previous Version | Text Only | Print | Product List | Glossary On
Versions: 1 2 3 4 5 6 7 8 9 10 11 12 13 14 15
717
FTUS43 KDLH 202328
TAFHIB
TAF
KHIB 202328Z 2100/2124 03005KT 6SM -RA BKN015 OVC040
     FM210300 36003KT P6SM SCT015
     FM210900 34003KT 4SM BR FEW007
     FM211400 35008KT P6SM SKC
     FM212100 33007KT P6SM SCT040=

USA.gov is the U.S. government's official web portal to all federal, state and local government web resources and services.